Time;durP1;ratioP1;P1;durP2;ratioP2;P2;SDS_P1;SDS_P2;PMS_P1;PMS_P2;Temp;Humidity;BMP_temperature;BMP_pressure;BME280_temperature;BME280_humidity;BME280_pressure;Samples;Min_cycle;Max_cycle;Signal;HPM_P1;HPM_P2
2022/09/11 00:01:39;;;;;;;13.87;13.37;;;16.00;99.90;;;;;;5012107;28;20446;-75
2022/09/11 00:04:06;;;;;;;14.47;13.97;;;16.00;99.90;;;;;;5012577;28;20516;-75
2022/09/11 00:06:34;;;;;;;14.60;13.90;;;16.10;99.90;;;;;;5012622;28;20454;-75
2022/09/11 00:09:03;;;;;;;14.67;14.17;;;16.10;99.90;;;;;;5012617;28;20457;-76
2022/09/11 00:11:32;;;;;;;15.53;15.00;;;16.20;99.90;;;;;;5013939;28;20456;-76
2022/09/11 00:13:59;;;;;;;15.27;14.77;;;16.20;99.90;;;;;;5012872;28;20477;-76
2022/09/11 00:16:29;;;;;;;13.60;13.10;;;16.20;99.90;;;;;;5013345;28;20489;-76
2022/09/11 00:18:58;;;;;;;14.40;13.70;;;16.20;99.90;;;;;;5014155;28;20461;-76
2022/09/11 00:21:26;;;;;;;14.30;13.80;;;16.30;99.90;;;;;;5014902;28;20457;-77
2022/09/11 00:23:54;;;;;;;13.97;13.47;;;16.30;99.90;;;;;;5011826;28;20450;-76
2022/09/11 00:26:23;;;;;;;13.53;13.03;;;16.40;99.90;;;;;;5010928;28;20447;-77
2022/09/11 00:28:51;;;;;;;13.93;13.40;;;16.40;99.90;;;;;;5011237;28;20449;-75
2022/09/11 00:31:20;;;;;;;14.50;14.00;;;16.40;99.90;;;;;;5011066;28;20453;-75
2022/09/11 00:33:48;;;;;;;14.30;13.80;;;16.50;99.90;;;;;;5014824;28;20504;-76
2022/09/11 00:36:16;;;;;;;14.63;14.00;;;16.50;99.90;;;;;;5014782;28;20477;-76
2022/09/11 00:38:45;;;;;;;14.30;13.70;;;16.50;99.90;;;;;;5014937;28;20859;-75
2022/09/11 00:41:17;;;;;;;13.90;13.30;;;16.60;99.90;;;;;;5014755;28;20449;-75
2022/09/11 00:43:52;;;;;;;13.30;12.90;;;16.60;99.90;;;;;;5014654;28;20500;-75
2022/09/11 00:46:19;;;;;;;13.90;13.40;;;16.60;99.90;;;;;;5014291;28;20445;-75
2022/09/11 00:48:48;;;;;;;14.27;13.77;;;16.60;99.90;;;;;;5014521;28;20454;-74
2022/09/11 00:51:18;;;;;;;13.90;13.40;;;16.50;99.90;;;;;;5014564;28;20532;-75
2022/09/11 00:53:46;;;;;;;13.73;13.33;;;16.60;99.90;;;;;;5014522;28;20482;-75
2022/09/11 00:56:14;;;;;;;13.47;12.97;;;16.50;99.90;;;;;;5014292;28;20485;-72
2022/09/11 00:58:43;;;;;;;14.60;14.00;;;16.50;99.90;;;;;;5014191;28;20445;-73
2022/09/11 01:01:10;;;;;;;13.67;13.17;;;16.60;99.90;;;;;;5014258;28;20450;-73
2022/09/11 01:03:37;;;;;;;14.40;13.80;;;16.50;99.90;;;;;;5013998;28;20960;-73
2022/09/11 01:06:05;;;;;;;13.77;13.20;;;16.50;99.90;;;;;;5013903;28;20454;-72
2022/09/11 01:08:32;;;;;;;13.40;12.90;;;16.60;99.90;;;;;;5013905;28;20493;-73
2022/09/11 01:11:12;;;;;;;13.97;13.37;;;16.60;99.90;;;;;;5014155;28;20453;-73
2022/09/11 02:35:50;;;;;;;14.10;13.50;;;16.70;99.90;;;;;;5764659;23;20495;-73
2022/09/11 02:38:24;;;;;;;13.50;13.00;;;16.80;99.90;;;;;;4970558;28;20471;-72
2022/09/11 02:41:00;;;;;;;13.77;13.10;;;16.80;99.90;;;;;;4974284;28;20459;-73
2022/09/11 02:43:41;;;;;;;14.20;13.60;;;16.80;99.90;;;;;;4972822;28;20937;-73
2022/09/11 02:46:47;;;;;;;13.23;12.73;;;16.80;99.90;;;;;;4972708;28;20463;-73
2022/09/11 02:49:21;;;;;;;14.00;13.50;;;16.90;99.90;;;;;;4969069;28;20538;-73
2022/09/11 02:52:01;;;;;;;13.90;13.40;;;16.90;99.90;;;;;;4972917;28;20455;-72
2022/09/11 02:54:34;;;;;;;14.67;14.00;;;16.80;99.90;;;;;;4971668;28;20459;-73
2022/09/11 02:57:07;;;;;;;14.27;13.70;;;16.90;99.90;;;;;;4973039;28;20487;-73
2022/09/11 02:59:38;;;;;;;14.30;13.60;;;16.90;99.90;;;;;;4973684;28;20452;-73
2022/09/11 03:02:11;;;;;;;14.87;14.17;;;16.90;99.90;;;;;;4972689;28;20455;-72
2022/09/11 03:04:38;;;;;;;14.00;13.50;;;16.90;99.90;;;;;;4972128;28;20522;-72
2022/09/11 03:07:06;;;;;;;14.40;13.70;;;16.90;99.90;;;;;;4972301;28;20456;-72
2022/09/11 03:09:33;;;;;;;14.20;13.60;;;16.90;99.90;;;;;;4972099;28;20498;-72
2022/09/11 03:12:00;;;;;;;14.20;13.70;;;17.00;99.90;;;;;;4971877;28;20459;-73
2022/09/11 03:14:27;;;;;;;14.80;14.03;;;17.00;99.90;;;;;;4971828;28;20862;-73
2022/09/11 03:16:54;;;;;;;13.70;13.20;;;16.90;99.90;;;;;;4971732;28;20590;-72
2022/09/11 03:19:21;;;;;;;14.80;14.20;;;16.90;99.90;;;;;;4971453;28;20451;-73
2022/09/11 03:21:48;;;;;;;14.50;14.00;;;16.90;99.90;;;;;;4971531;28;20459;-73
2022/09/11 03:24:16;;;;;;;13.77;13.13;;;16.90;99.90;;;;;;4971105;28;20459;-73
2022/09/11 03:26:43;;;;;;;18.13;17.10;;;16.90;99.90;;;;;;4971059;28;20466;-73
2022/09/11 03:29:10;;;;;;;14.87;14.00;;;16.90;99.90;;;;;;4971115;28;20463;-72
2022/09/11 03:31:36;;;;;;;14.03;13.43;;;16.90;99.90;;;;;;4971319;28;20522;-73
2022/09/11 03:34:03;;;;;;;14.20;13.40;;;17.00;99.90;;;;;;4970998;28;20506;-72
2022/09/11 03:36:30;;;;;;;15.03;14.33;;;17.00;99.90;;;;;;4970628;28;20491;-72
2022/09/11 03:38:57;;;;;;;15.53;14.60;;;17.20;99.90;;;;;;4970780;28;20459;-72
2022/09/11 03:41:25;;;;;;;15.10;14.57;;;17.10;99.90;;;;;;4971101;28;20482;-72
2022/09/11 03:43:52;;;;;;;15.67;15.07;;;17.10;99.90;;;;;;4971053;28;20459;-71
2022/09/11 03:46:19;;;;;;;15.37;14.67;;;17.10;99.90;;;;;;4970735;28;20455;-72
2022/09/11 03:48:45;;;;;;;15.03;14.33;;;17.10;99.90;;;;;;4970666;28;20466;-71
2022/09/11 03:51:13;;;;;;;14.33;13.70;;;17.10;99.90;;;;;;4970804;28;20889;-72
2022/09/11 03:53:40;;;;;;;14.03;13.33;;;17.10;99.90;;;;;;4970639;28;20511;-72
2022/09/11 03:56:07;;;;;;;15.30;14.50;;;17.00;99.90;;;;;;4970930;28;20515;-72
2022/09/11 03:58:35;;;;;;;15.43;14.60;;;17.00;99.90;;;;;;4970516;28;20487;-73
2022/09/11 04:01:08;;;;;;;16.33;15.63;;;17.00;99.90;;;;;;4970691;28;20462;-71
2022/09/11 04:03:35;;;;;;;15.30;14.70;;;17.00;99.90;;;;;;4970588;28;20780;-71
2022/09/11 04:06:03;;;;;;;16.67;15.97;;;17.00;99.90;;;;;;4969954;28;20550;-72
2022/09/11 04:08:32;;;;;;;15.40;14.70;;;17.00;99.90;;;;;;4970041;28;20452;-71
2022/09/11 04:11:00;;;;;;;14.07;13.37;;;17.00;99.90;;;;;;4970027;28;20455;-72
2022/09/11 04:13:28;;;;;;;15.77;15.07;;;17.00;99.90;;;;;;4970279;28;20459;-71
2022/09/11 04:16:00;;;;;;;14.60;14.00;;;17.10;99.90;;;;;;4970266;28;20526;-72
2022/09/11 04:18:27;;;;;;;15.17;14.67;;;17.10;99.90;;;;;;4970327;28;20491;-72
2022/09/11 04:20:53;;;;;;;16.30;15.60;;;17.10;99.90;;;;;;4970440;28;20459;-72
2022/09/11 04:23:20;;;;;;;16.07;15.27;;;17.10;99.90;;;;;;4970298;28;20865;-72
2022/09/11 04:25:47;;;;;;;15.07;14.57;;;17.10;99.90;;;;;;4970194;28;20979;-72
2022/09/11 04:28:14;;;;;;;16.33;15.50;;;17.10;99.90;;;;;;4970391;28;20459;-72
2022/09/11 04:30:41;;;;;;;13.50;13.00;;;17.10;99.90;;;;;;4970284;28;20945;-71
2022/09/11 04:33:09;;;;;;;16.07;15.37;;;17.20;99.90;;;;;;4970336;28;20514;-72
2022/09/11 04:35:39;;;;;;;14.70;14.20;;;17.20;99.90;;;;;;4969834;28;20495;-72
2022/09/11 04:38:06;;;;;;;15.00;14.40;;;17.20;99.90;;;;;;4969987;28;20665;-72
2022/09/11 04:40:33;;;;;;;15.43;14.80;;;17.20;99.90;;;;;;4969767;28;20926;-72
2022/09/11 04:43:00;;;;;;;17.13;16.33;;;17.30;99.90;;;;;;4969700;28;20957;-71
2022/09/11 04:45:28;;;;;;;13.97;13.37;;;17.30;99.90;;;;;;4970003;28;20487;-72
2022/09/11 04:47:55;;;;;;;16.63;15.83;;;17.30;99.90;;;;;;4970104;28;20483;-73
2022/09/11 04:50:23;;;;;;;15.17;14.53;;;17.40;99.90;;;;;;4970284;28;20467;-72
2022/09/11 04:52:50;;;;;;;15.33;14.77;;;17.50;99.90;;;;;;4970105;28;20536;-72
2022/09/11 04:55:17;;;;;;;16.47;15.10;;;17.40;99.90;;;;;;4969815;28;20957;-73
2022/09/11 04:57:43;;;;;;;15.90;15.20;;;17.40;99.90;;;;;;4969795;28;20495;-73
2022/09/11 05:00:11;;;;;;;16.17;15.50;;;17.30;99.90;;;;;;4970152;28;20459;-71
2022/09/11 05:02:39;;;;;;;16.53;15.60;;;17.30;99.90;;;;;;4969940;28;20459;-71
2022/09/11 05:05:07;;;;;;;17.30;16.40;;;17.30;99.90;;;;;;4970092;28;20486;-72
2022/09/11 05:07:37;;;;;;;15.73;15.03;;;17.30;99.90;;;;;;4969796;28;20460;-72
2022/09/11 05:10:04;;;;;;;16.80;15.80;;;17.30;99.90;;;;;;4970132;28;20473;-72
2022/09/11 05:12:31;;;;;;;16.40;15.67;;;17.30;99.90;;;;;;4969927;28;20983;-72
2022/09/11 05:14:58;;;;;;;16.60;15.60;;;17.40;99.90;;;;;;4969963;28;20464;-72
2022/09/11 05:17:25;;;;;;;17.10;16.30;;;17.30;99.90;;;;;;4969779;28;20586;-72
2022/09/11 05:19:52;;;;;;;17.30;16.30;;;17.30;99.90;;;;;;4973120;28;20466;-72
2022/09/11 05:22:18;;;;;;;16.20;15.40;;;17.30;99.90;;;;;;4972855;28;20510;-72
2022/09/11 05:24:46;;;;;;;16.17;15.37;;;17.30;99.90;;;;;;4972907;28;20483;-72
2022/09/11 05:27:14;;;;;;;16.87;16.07;;;17.30;99.90;;;;;;4973318;28;20468;-70
2022/09/11 05:29:41;;;;;;;16.87;16.07;;;17.30;99.90;;;;;;4970758;28;20823;-71
2022/09/11 05:32:08;;;;;;;17.20;16.00;;;17.30;99.90;;;;;;4972649;28;20466;-71
2022/09/11 05:34:34;;;;;;;16.67;15.97;;;17.40;99.90;;;;;;4971470;28;20472;-71
2022/09/11 05:37:01;;;;;;;16.53;15.83;;;17.50;99.90;;;;;;4972930;28;20490;-71
2022/09/11 05:39:28;;;;;;;17.43;16.53;;;17.50;99.90;;;;;;4973139;28;20554;-71
2022/09/11 05:41:56;;;;;;;16.83;15.83;;;17.60;99.90;;;;;;4973378;28;20464;-71
2022/09/11 05:44:23;;;;;;;16.80;16.00;;;17.70;99.90;;;;;;4973419;28;20849;-71
2022/09/11 05:46:49;;;;;;;17.30;16.40;;;17.70;99.90;;;;;;4973061;28;20893;-71
2022/09/11 05:49:16;;;;;;;16.20;15.27;;;17.70;99.90;;;;;;4972988;28;20941;-71
2022/09/11 05:51:43;;;;;;;16.33;15.53;;;17.60;99.90;;;;;;4972935;28;20451;-71
2022/09/11 05:54:09;;;;;;;16.93;16.03;;;17.70;99.90;;;;;;4973176;28;20463;-70
2022/09/11 05:56:36;;;;;;;17.37;16.47;;;17.70;99.90;;;;;;4973165;28;20518;-70
2022/09/11 05:59:13;;;;;;;16.10;15.40;;;17.60;99.90;;;;;;4972721;28;20872;-70
2022/09/11 06:01:39;;;;;;;17.40;16.40;;;17.60;99.90;;;;;;4973009;28;20463;-71
2022/09/11 06:04:09;;;;;;;15.80;15.13;;;17.70;99.90;;;;;;4972938;28;20459;-70
2022/09/11 06:06:36;;;;;;;16.63;15.80;;;17.70;99.90;;;;;;4972853;28;20455;-71
2022/09/11 06:09:03;;;;;;;16.70;15.97;;;17.60;99.90;;;;;;4972492;28;20458;-71
2022/09/11 06:11:29;;;;;;;16.63;15.90;;;17.60;99.90;;;;;;4972522;28;20452;-70
2022/09/11 06:13:56;;;;;;;17.20;16.40;;;17.70;99.90;;;;;;4972415;28;20452;-70
2022/09/11 06:16:24;;;;;;;16.67;15.77;;;17.80;99.90;;;;;;4972768;28;20794;-70
2022/09/11 06:18:53;;;;;;;17.07;16.27;;;17.90;99.90;;;;;;4972557;28;20491;-71
2022/09/11 06:21:22;;;;;;;16.73;15.77;;;17.90;99.90;;;;;;4972430;28;20875;-70
2022/09/11 06:23:50;;;;;;;17.23;16.27;;;17.90;99.90;;;;;;4972218;28;20468;-71
2022/09/11 06:26:20;;;;;;;15.97;15.23;;;17.90;99.90;;;;;;4972420;28;20554;-72
2022/09/11 06:28:46;;;;;;;16.27;15.40;;;18.00;99.90;;;;;;4972144;28;20917;-71
2022/09/11 06:31:16;;;;;;;17.60;16.60;;;18.10;99.90;;;;;;4969944;28;20506;-71
2022/09/11 06:33:44;;;;;;;17.03;16.23;;;18.00;99.90;;;;;;4972059;28;20455;-72
2022/09/11 06:36:13;;;;;;;16.73;15.90;;;18.20;99.90;;;;;;4969936;28;20491;-71
2022/09/11 06:38:39;;;;;;;17.57;16.57;;;18.30;99.90;;;;;;4971873;28;20491;-72
2022/09/11 06:41:11;;;;;;;16.90;16.07;;;18.10;99.90;;;;;;4972309;28;20463;-71
2022/09/11 06:43:38;;;;;;;16.67;15.83;;;18.20;99.90;;;;;;4972236;28;20950;-71
2022/09/11 06:46:06;;;;;;;17.93;17.03;;;18.20;99.90;;;;;;4972172;28;20479;-73
2022/09/11 06:48:32;;;;;;;16.53;15.73;;;18.20;99.90;;;;;;4971972;28;20950;-72
2022/09/11 06:51:03;;;;;;;17.77;16.67;;;18.30;99.90;;;;;;4971829;28;20460;-72
2022/09/11 06:53:30;;;;;;;16.73;15.93;;;18.40;99.90;;;;;;4971809;28;20764;-72
2022/09/11 06:55:59;;;;;;;18.23;16.87;;;18.30;99.90;;;;;;4971482;28;20841;-72
2022/09/11 06:58:27;;;;;;;16.90;16.10;;;18.30;99.90;;;;;;4971592;28;20491;-72
2022/09/11 07:00:54;;;;;;;15.83;15.13;;;18.30;99.90;;;;;;4971610;28;20467;-72
2022/09/11 07:03:21;;;;;;;17.80;16.80;;;18.30;99.90;;;;;;4971825;28;20468;-73
2022/09/11 07:05:48;;;;;;;17.57;16.50;;;18.30;99.90;;;;;;4971441;28;20478;-73
2022/09/11 07:08:16;;;;;;;18.90;17.70;;;18.30;99.90;;;;;;4971549;28;20459;-73
2022/09/11 07:10:42;;;;;;;16.87;15.97;;;18.40;99.90;;;;;;4971082;28;20472;-73
2022/09/11 07:13:09;;;;;;;17.97;17.00;;;18.50;99.90;;;;;;4971311;28;20522;-71
2022/09/11 07:15:36;;;;;;;16.03;15.33;;;18.60;99.90;;;;;;4971192;28;20455;-73
2022/09/11 07:18:02;;;;;;;15.83;14.93;;;18.80;99.90;;;;;;4970881;28;20627;-72
2022/09/11 07:20:30;;;;;;;17.00;16.07;;;18.90;99.90;;;;;;4970598;28;20952;-72
2022/09/11 07:22:57;;;;;;;16.30;15.43;;;19.00;99.90;;;;;;4970886;28;20455;-72
2022/09/11 07:25:25;;;;;;;16.87;15.87;;;19.10;99.90;;;;;;4971272;28;20467;-72
2022/09/11 07:27:52;;;;;;;15.80;15.00;;;19.20;99.90;;;;;;4971263;28;20455;-72
2022/09/11 07:30:19;;;;;;;16.60;15.70;;;19.50;99.90;;;;;;4970851;28;20981;-73
2022/09/11 07:32:46;;;;;;;16.00;15.20;;;19.60;99.90;;;;;;4970817;28;20467;-73
2022/09/11 07:35:15;;;;;;;17.40;16.43;;;19.60;99.90;;;;;;4970344;28;20479;-73
2022/09/11 07:37:42;;;;;;;16.33;15.57;;;19.40;99.90;;;;;;4970585;28;20547;-73
2022/09/11 07:40:09;;;;;;;17.30;16.20;;;19.30;99.90;;;;;;4970951;28;20455;-73
2022/09/11 07:42:37;;;;;;;17.80;16.60;;;19.20;99.90;;;;;;4969926;28;20456;-73
2022/09/11 07:45:05;;;;;;;16.80;15.67;;;19.20;99.90;;;;;;4970636;28;20941;-72
2022/09/11 07:47:32;;;;;;;15.60;14.90;;;19.20;99.90;;;;;;4970277;28;20475;-72
2022/09/11 07:49:59;;;;;;;16.47;15.70;;;19.30;99.90;;;;;;4968718;28;20459;-73
2022/09/11 07:52:26;;;;;;;16.93;15.93;;;19.40;99.90;;;;;;4970530;28;20451;-73
2022/09/11 07:54:52;;;;;;;17.10;16.13;;;19.40;99.90;;;;;;4970650;28;20832;-73
2022/09/11 07:57:20;;;;;;;16.27;15.37;;;19.30;99.90;;;;;;4970149;28;20840;-71
2022/09/11 07:59:48;;;;;;;15.90;15.00;;;19.30;99.90;;;;;;4970183;28;21184;-72
2022/09/11 08:02:16;;;;;;;16.90;16.10;;;19.30;99.90;;;;;;4970145;28;20799;-72
2022/09/11 08:04:43;;;;;;;16.63;15.83;;;;;;;;;;4970056;28;20502;-72
2022/09/11 08:07:10;;;;;;;14.37;13.67;;;19.30;99.90;;;;;;4979170;28;20922;-71
2022/09/11 08:09:37;;;;;;;17.47;16.57;;;19.00;99.90;;;;;;4979357;28;20918;-72
2022/09/11 08:12:05;;;;;;;17.40;16.50;;;19.10;99.90;;;;;;4977506;28;20777;-71
2022/09/11 08:14:32;;;;;;;17.20;15.97;;;19.00;99.90;;;;;;4978730;28;20469;-73
2022/09/11 08:17:00;;;;;;;15.93;15.13;;;19.20;99.90;;;;;;4979442;28;20612;-72
2022/09/11 08:19:26;;;;;;;15.10;14.40;;;19.40;99.90;;;;;;4975092;28;20537;-72
2022/09/11 08:21:54;;;;;;;17.20;16.30;;;19.60;99.90;;;;;;4979097;28;20443;-72
2022/09/11 08:24:20;;;;;;;16.50;15.40;;;19.80;99.90;;;;;;4979721;28;20539;-72
2022/09/11 08:26:48;;;;;;;15.23;14.30;;;19.80;99.90;;;;;;4978202;28;20450;-72
2022/09/11 08:29:14;;;;;;;16.27;15.47;;;20.00;99.90;;;;;;4989958;28;20454;-72
2022/09/11 08:31:41;;;;;;;16.30;15.40;;;20.40;99.90;;;;;;4988159;28;20465;-72
2022/09/11 08:34:10;;;;;;;14.80;14.10;;;20.70;99.90;;;;;;4989370;28;20474;-72
2022/09/11 08:36:37;;;;;;;16.90;15.60;;;21.00;99.90;;;;;;4989259;28;21033;-72
2022/09/11 08:39:04;;;;;;;16.57;15.67;;;21.40;99.90;;;;;;4989243;28;20490;-72
2022/09/11 08:41:39;;;;;;;17.00;16.20;;;21.70;99.90;;;;;;4989086;28;20459;-72
2022/09/11 08:44:14;;;;;;;14.13;13.43;;;21.90;99.90;;;;;;4989389;28;20450;-72
2022/09/11 08:46:45;;;;;;;14.30;13.57;;;22.50;99.90;;;;;;4989054;28;20450;-72
2022/09/11 08:49:19;;;;;;;15.67;14.70;;;23.20;99.90;;;;;;4989030;28;20459;-72
2022/09/11 08:51:48;;;;;;;15.43;14.73;;;23.60;99.90;;;;;;4988869;28;20782;-73
2022/09/11 08:54:22;;;;;;;15.83;15.13;;;24.50;99.90;;;;;;4992018;28;20547;-72
2022/09/11 08:56:51;;;;;;;15.33;14.60;;;24.20;99.90;;;;;;4992933;28;20579;-72
2022/09/11 08:59:26;;;;;;;16.57;15.87;;;23.70;99.90;;;;;;4992596;28;20497;-73
2022/09/11 09:02:01;;;;;;;16.80;16.00;;;23.00;99.90;;;;;;4992836;28;20879;-72
2022/09/11 09:04:46;;;;;;;14.60;13.90;;;22.20;99.90;;;;;;4992711;28;21060;-73
2022/09/11 09:07:22;;;;;;;16.60;15.70;;;21.60;99.90;;;;;;4992562;28;20457;-72
2022/09/11 09:09:58;;;;;;;16.33;15.43;;;21.00;99.90;;;;;;4992605;28;20450;-72
2022/09/11 09:12:34;;;;;;;16.60;15.80;;;20.60;99.90;;;;;;4992640;28;20457;-72
2022/09/11 09:15:22;;;;;;;19.40;18.30;;;20.30;99.90;;;;;;4992548;28;20462;-72
2022/09/11 09:17:55;;;;;;;18.27;17.17;;;20.30;99.90;;;;;;4992594;28;20470;-72
2022/09/11 09:20:29;;;;;;;16.43;15.63;;;20.30;99.90;;;;;;4992796;28;20567;-73
2022/09/11 09:23:00;;;;;;;15.43;14.73;;;21.70;99.90;;;;;;4992510;28;20454;-72
2022/09/11 09:25:27;;;;;;;16.43;15.53;;;23.30;99.90;;;;;;4992525;28;20461;-73
2022/09/11 09:27:59;;;;;;;15.53;14.83;;;24.90;99.90;;;;;;4992883;28;20478;-74
2022/09/11 09:30:30;;;;;;;15.90;15.20;;;26.40;96.60;;;;;;4992983;28;20450;-73
2022/09/11 09:33:00;;;;;;;14.53;13.87;;;27.40;94.80;;;;;;4992862;28;20451;-74
2022/09/11 09:35:38;;;;;;;16.07;15.37;;;28.80;92.20;;;;;;4992508;28;20834;-74
2022/09/11 09:38:11;;;;;;;14.80;14.20;;;30.10;87.80;;;;;;4992251;28;20549;-75
2022/09/11 09:40:41;;;;;;;14.73;14.13;;;30.30;83.70;;;;;;4992374;28;20937;-74
2022/09/11 09:43:31;;;;;;;15.40;14.80;;;31.10;81.20;;;;;;4992503;28;20510;-74
2022/09/11 09:46:17;;;;;;;14.80;14.30;;;31.80;78.30;;;;;;4991981;28;20458;-74
2022/09/11 09:48:43;;;;;;;14.90;14.20;;;30.50;77.90;;;;;;4991977;28;20446;-74
2022/09/11 09:51:14;;;;;;;15.47;14.77;;;28.10;84.90;;;;;;4992062;28;20939;-74
2022/09/11 09:53:45;;;;;;;14.83;14.23;;;26.20;93.00;;;;;;4991712;28;20463;-74
2022/09/11 09:56:15;;;;;;;13.87;13.27;;;26.00;91.50;;;;;;4991724;28;20451;-74
2022/09/11 09:58:48;;;;;;;14.17;13.50;;;25.40;92.50;;;;;;4991326;28;20509;-74
2022/09/11 10:01:43;;;;;;;14.70;14.00;;;24.80;94.10;;;;;;4989351;28;20836;-74
2022/09/11 10:04:13;;;;;;;14.07;13.37;;;25.20;94.40;;;;;;4959854;28;20531;-73
2022/09/11 10:06:42;;;;;;;14.57;13.87;;;26.40;93.00;;;;;;4959796;28;20828;-75
2022/09/11 10:09:19;;;;;;;15.23;14.53;;;27.60;90.80;;;;;;4961317;28;20459;-73
2022/09/11 10:11:52;;;;;;;14.33;13.73;;;27.10;91.30;;;;;;4960144;28;20448;-74
2022/09/11 10:14:21;;;;;;;15.40;14.70;;;26.40;91.10;;;;;;4959899;28;20445;-74
2022/09/11 10:16:49;;;;;;;14.63;13.93;;;25.90;92.00;;;;;;4961341;28;20554;-73
2022/09/11 10:19:36;;;;;;;15.77;14.90;;;25.60;93.00;;;;;;4961267;28;20908;-74
2022/09/11 10:22:31;;;;;;;16.17;15.43;;;26.40;95.00;;;;;;4950855;28;20453;-74
2022/09/11 10:25:14;;;;;;;15.00;14.20;;;26.50;90.80;;;;;;4959156;28;20448;-75
2022/09/11 10:27:45;;;;;;;14.40;13.80;;;26.70;89.80;;;;;;4960522;28;20460;-75
2022/09/11 10:30:28;;;;;;;15.13;14.53;;;26.90;88.60;;;;;;4961113;28;20448;-75
2022/09/11 10:32:55;;;;;;;16.17;15.37;;;27.50;85.80;;;;;;4951101;28;20959;-75
2022/09/11 10:35:25;;;;;;;15.40;14.60;;;27.20;87.30;;;;;;4951042;28;20487;-74
2022/09/11 10:38:05;;;;;;;16.73;15.93;;;27.60;88.40;;;;;;4951427;28;20877;-75
2022/09/11 10:40:32;;;;;;;15.57;14.80;;;28.70;84.00;;;;;;4955498;28;20488;-74
2022/09/11 10:42:59;;;;;;;16.00;15.30;;;28.70;83.60;;;;;;4959397;28;20460;-75
2022/09/11 10:45:26;;;;;;;14.40;13.70;;;27.70;86.60;;;;;;4961080;28;20448;-74
2022/09/11 10:47:53;;;;;;;15.43;14.27;;;;;;;;;;4960655;28;20545;-74
2022/09/11 10:50:23;;;;;;;14.50;14.00;;;27.40;88.10;;;;;;4959152;28;20440;-75
2022/09/11 10:53:12;;;;;;;17.30;16.30;;;27.90;88.20;;;;;;4960718;28;20532;-74
2022/09/11 10:55:43;;;;;;;15.50;14.90;;;27.50;85.50;;;;;;4950633;28;20452;-74
2022/09/11 10:58:16;;;;;;;15.60;15.00;;;26.10;89.30;;;;;;4950674;28;20452;-74
2022/09/11 11:00:43;;;;;;;16.87;15.97;;;25.80;91.20;;;;;;4951017;28;20503;-75
2022/09/11 11:03:16;;;;;;;15.50;14.80;;;26.50;90.80;;;;;;4950417;28;20452;-75
2022/09/11 11:05:53;;;;;;;15.43;14.73;;;27.20;89.30;;;;;;4950270;28;20892;-76
2022/09/11 11:08:49;;;;;;;14.23;13.57;;;27.50;87.10;;;;;;4950613;28;20543;-76
2022/09/11 11:11:28;;;;;;;14.40;13.80;;;27.50;86.70;;;;;;4955389;28;20456;-75
2022/09/11 11:14:20;;;;;;;14.90;14.20;;;28.10;84.30;;;;;;4960862;28;20460;-75
2022/09/11 11:16:58;;;;;;;15.33;14.63;;;29.10;82.90;;;;;;4959269;28;20445;-75
2022/09/11 11:19:55;;;;;;;14.70;14.00;;;30.10;79.40;;;;;;4959070;28;20492;-77
2022/09/11 11:22:38;;;;;;;15.70;15.03;;;30.30;77.20;;;;;;4950694;28;20456;-75
2022/09/11 11:25:15;;;;;;;15.17;14.23;;;31.20;74.90;;;;;;4950121;28;20452;-74
2022/09/11 11:28:01;;;;;;;14.87;14.23;;;30.70;74.70;;;;;;4949927;28;20452;-75
2022/09/11 11:30:33;;;;;;;15.17;14.53;;;31.30;72.10;;;;;;4956349;28;20463;-75
2022/09/11 11:33:25;;;;;;;15.60;14.80;;;30.70;73.30;;;;;;4958429;28;20652;-74
2022/09/11 11:36:01;;;;;;;15.57;14.97;;;31.00;72.60;;;;;;4950403;28;20491;-74
2022/09/11 11:38:33;;;;;;;15.83;15.13;;;31.90;69.70;;;;;;4956207;28;20452;-75
2022/09/11 11:41:07;;;;;;;16.23;15.27;;;32.50;66.60;;;;;;4961414;28;20510;-75
2022/09/11 11:43:39;;;;;;;16.30;15.40;;;32.40;65.50;;;;;;4960758;28;20551;-75
2022/09/11 11:46:14;;;;;;;15.77;15.07;;;31.30;66.70;;;;;;4958927;28;20449;-75
2022/09/11 11:48:46;;;;;;;16.60;15.70;;;29.70;71.30;;;;;;4958277;28;20456;-75
2022/09/11 11:51:18;;;;;;;15.70;14.90;;;28.00;75.00;;;;;;4959275;28;20451;-75
2022/09/11 11:53:55;;;;;;;16.40;15.30;;;27.70;78.90;;;;;;4949932;28;20445;-75
2022/09/11 11:56:32;;;;;;;16.00;15.20;;;27.40;79.20;;;;;;4949800;28;20459;-75
2022/09/11 11:59:07;;;;;;;16.03;15.23;;;26.70;83.30;;;;;;4949648;28;20970;-74
2022/09/11 12:01:39;;;;;;;15.60;14.60;;;27.30;83.80;;;;;;4950095;28;20484;-74
2022/09/11 12:04:18;;;;;;;14.97;14.17;;;28.40;80.00;;;;;;4959357;28;20445;-75
2022/09/11 12:06:45;;;;;;;15.60;14.90;;;;;;;;;;4958837;28;20448;-74
2022/09/11 12:09:17;;;;;;;14.20;13.53;;;28.80;77.20;;;;;;4959461;28;20458;-74
2022/09/11 12:11:47;;;;;;;15.03;14.43;;;29.40;73.80;;;;;;4960246;28;20453;-74
2022/09/11 12:14:26;;;;;;;13.97;13.37;;;29.10;72.00;;;;;;4959396;28;20437;-73
2022/09/11 12:16:54;;;;;;;14.50;14.00;;;29.90;69.00;;;;;;4951161;28;20973;-74
2022/09/11 12:19:24;;;;;;;15.03;14.43;;;30.30;67.30;;;;;;4949876;28;20485;-75
2022/09/11 12:22:12;;;;;;;13.93;13.33;;;29.20;68.20;;;;;;4950213;28;20991;-75
2022/09/11 12:24:57;;;;;;;15.67;14.87;;;29.30;69.70;;;;;;4950252;28;20603;-76
2022/09/11 12:27:55;;;;;;;14.57;13.93;;;28.70;70.50;;;;;;4949146;28;20453;-76
2022/09/11 12:30:27;;;;;;;14.07;13.40;;;27.70;73.00;;;;;;4960398;28;20538;-75
2022/09/11 12:32:55;;;;;;;14.80;13.73;;;27.40;74.10;;;;;;4959428;28;20456;-76
2022/09/11 12:35:30;;;;;;;15.13;14.53;;;27.30;76.10;;;;;;4957887;28;20511;-75
2022/09/11 12:38:02;;;;;;;14.50;13.90;;;26.80;78.10;;;;;;4958227;28;20456;-75
2022/09/11 12:40:37;;;;;;;14.70;13.83;;;25.90;81.40;;;;;;4958528;28;20496;-75
2022/09/11 12:43:29;;;;;;;15.50;14.80;;;25.50;83.40;;;;;;4964858;28;20569;-75
2022/09/11 12:45:56;;;;;;;14.37;13.77;;;25.40;83.80;;;;;;4993780;28;20450;-77
2022/09/11 12:48:32;;;;;;;15.50;14.80;;;25.60;82.80;;;;;;4993825;28;20478;-76
2022/09/11 12:50:59;;;;;;;14.23;13.57;;;;;;;;;;4990033;28;20489;-77
2022/09/11 12:53:29;;;;;;;15.93;15.00;;;25.90;81.60;;;;;;4990802;28;20455;-76
2022/09/11 12:55:58;;;;;;;15.77;15.03;;;25.80;83.10;;;;;;4990988;28;20451;-76
2022/09/11 12:58:33;;;;;;;12.90;12.30;;;25.90;84.90;;;;;;4989681;28;20458;-76
2022/09/11 13:01:15;;;;;;;14.87;14.27;;;26.00;84.20;;;;;;4989143;28;20490;-76
2022/09/11 13:03:50;;;;;;;15.13;14.53;;;25.70;85.50;;;;;;4989211;28;20455;-76
2022/09/11 13:06:17;;;;;;;16.40;15.60;;;25.60;86.10;;;;;;4989040;28;20450;-76
2022/09/11 13:08:48;;;;;;;15.80;15.07;;;25.10;88.40;;;;;;4989203;28;20458;-75
2022/09/11 13:11:34;;;;;;;15.70;14.60;;;24.70;89.40;;;;;;4989927;28;20517;-76
2022/09/11 13:14:05;;;;;;;15.63;14.63;;;24.60;90.30;;;;;;4990696;28;20847;-75
2022/09/11 13:16:34;;;;;;;14.20;13.50;;;24.20;90.80;;;;;;4990962;28;20470;-75
2022/09/11 13:19:10;;;;;;;12.60;12.10;;;24.10;91.60;;;;;;4989513;28;20717;-75
2022/09/11 13:21:40;;;;;;;15.03;14.33;;;24.20;91.80;;;;;;4989119;28;20443;-76
2022/09/11 13:24:23;;;;;;;15.67;14.77;;;24.40;91.60;;;;;;4987259;28;20450;-75
2022/09/11 13:26:54;;;;;;;16.97;16.27;;;24.40;92.00;;;;;;4989059;28;20485;-74
2022/09/11 13:29:23;;;;;;;15.00;14.37;;;24.40;92.60;;;;;;4988886;28;20494;-75
2022/09/11 13:31:52;;;;;;;17.40;16.60;;;24.10;92.30;;;;;;4988872;28;20455;-75
2022/09/11 13:34:23;;;;;;;16.73;16.00;;;24.00;99.90;;;;;;4988435;28;20466;-75
2022/09/11 13:36:50;;;;;;;15.40;14.57;;;24.00;93.00;;;;;;4988526;28;20555;-75
2022/09/11 13:39:21;;;;;;;16.93;15.73;;;23.90;93.30;;;;;;4988740;28;20454;-75
2022/09/11 13:41:50;;;;;;;16.17;15.37;;;24.00;93.90;;;;;;4991761;28;20525;-75
2022/09/11 13:44:38;;;;;;;14.90;14.27;;;23.90;93.80;;;;;;4980037;28;20527;-77
2022/09/11 13:47:06;;;;;;;15.03;14.33;;;23.90;94.30;;;;;;4980323;28;20555;-75
2022/09/11 13:49:36;;;;;;;16.13;15.33;;;23.90;94.00;;;;;;4980226;28;20625;-75
2022/09/11 13:52:05;;;;;;;13.40;12.80;;;23.90;94.50;;;;;;4976916;28;20464;-75
2022/09/11 13:54:37;;;;;;;15.13;14.43;;;23.90;94.60;;;;;;4980430;28;20541;-75
2022/09/11 13:57:13;;;;;;;14.90;14.20;;;24.10;94.50;;;;;;4977334;28;20470;-75
2022/09/11 13:59:46;;;;;;;16.10;15.40;;;24.10;94.50;;;;;;4979924;28;20535;-75
2022/09/11 14:02:42;;;;;;;16.30;15.40;;;24.50;94.40;;;;;;4980319;28;20469;-76
2022/09/11 14:05:13;;;;;;;17.00;16.10;;;24.40;93.80;;;;;;4979755;28;20455;-76
2022/09/11 14:07:46;;;;;;;16.57;15.57;;;24.70;93.50;;;;;;4979739;28;20946;-75
2022/09/11 14:10:23;;;;;;;17.47;16.60;;;24.60;93.30;;;;;;4980088;28;20447;-75